Time,TemperatureF,DewpointF,PressureIn,WindDirection,WindDirectionDegrees,WindSpeedMPH,WindSpeedGustMPH,Humidity,HourlyPrecipIn,Conditions,Clouds,dailyrainin,SoftwareType,DateUTC
2013-01-10 00:05:00,38.8,35.0,30.08,SSE,158,0.0,0.0,85,0.00,,,0.00,weatherlink.com 1.10,2013-01-10 08:05:00,
2013-01-10 00:20:00,39.2,35.0,30.08,SE,124,0.0,2.0,86,0.00,,,0.00,weatherlink.com 1.10,2013-01-10 08:20:00,
2013-01-10 00:35:00,38.5,35.0,30.08,SSW,195,0.0,0.0,86,0.00,,,0.00,weatherlink.com 1.10,2013-01-10 08:35:00,
2013-01-10 00:51:00,38.1,35.0,30.08,SSW,194,0.0,0.0,87,0.00,,,0.00,weatherlink.com 1.10,2013-01-10 08:51:00,
2013-01-10 01:06:00,38.4,35.0,30.09,SSW,193,0.0,4.0,87,0.00,,,0.00,weatherlink.com 1.10,2013-01-10 09:06:00,
2013-01-10 01:21:00,38.6,35.0,30.09,SW,221,0.0,0.0,87,0.00,,,0.00,weatherlink.com 1.10,2013-01-10 09:21:00,
2013-01-10 01:36:00,38.6,35.0,30.09,NE,40,0.0,0.0,86,0.00,,,0.00,weatherlink.com 1.10,2013-01-10 09:36:00,
2013-01-10 01:51:00,38.2,34.0,30.09,SE,131,0.0,0.0,86,0.00,,,0.00,weatherlink.com 1.10,2013-01-10 09:51:00,
2013-01-10 02:06:00,37.9,34.0,30.09,East,97,0.0,0.0,87,0.00,,,0.00,weatherlink.com 1.10,2013-01-10 10:06:00,
2013-01-10 02:21:00,36.5,33.0,30.09,NE,53,0.0,0.0,88,0.00,,,0.00,weatherlink.com 1.10,2013-01-10 10:21:00,
2013-01-10 02:36:00,35.6,33.0,30.10,NE,56,0.0,0.0,90,0.00,,,0.00,weatherlink.com 1.10,2013-01-10 10:36:00,
2013-01-10 02:51:00,35.4,33.0,30.10,SE,131,0.0,0.0,91,0.00,,,0.00,weatherlink.com 1.10,2013-01-10 10:51:00,
2013-01-10 03:06:00,35.9,34.0,30.10,SE,131,0.0,2.0,91,0.00,,,0.00,weatherlink.com 1.10,2013-01-10 11:06:00,
2013-01-10 03:21:00,35.4,33.0,30.10,NE,39,0.0,0.0,90,0.00,,,0.00,weatherlink.com 1.10,2013-01-10 11:21:00,
2013-01-10 03:36:00,34.7,33.0,30.10,ESE,113,0.0,0.0,92,0.00,,,0.00,weatherlink.com 1.10,2013-01-10 11:36:00,
2013-01-10 03:51:00,35.6,34.0,30.10,ESE,113,0.0,0.0,92,0.00,,,0.00,weatherlink.com 1.10,2013-01-10 11:51:00,
2013-01-10 04:06:00,35.6,34.0,30.09,ENE,58,0.0,2.0,93,0.00,,,0.00,weatherlink.com 1.10,2013-01-10 12:06:00,
2013-01-10 04:21:00,36.3,34.0,30.09,NE,44,0.0,0.0,92,0.00,,,0.00,weatherlink.com 1.10,2013-01-10 12:21:00,
2013-01-10 04:36:00,37.1,34.0,30.09,NE,46,0.0,0.0,89,0.00,,,0.00,weatherlink.com 1.10,2013-01-10 12:36:00,
2013-01-10 04:51:00,34.8,32.0,30.09,NW,316,0.0,0.0,90,0.00,,,0.00,weatherlink.com 1.10,2013-01-10 12:51:00,
2013-01-10 05:06:00,34.8,33.0,30.09,WNW,299,0.0,0.0,92,0.00,,,0.00,weatherlink.com 1.10,2013-01-10 13:06:00,
2013-01-10 05:21:00,35.5,33.0,30.09,NE,34,0.0,0.0,92,0.00,,,0.00,weatherlink.com 1.10,2013-01-10 13:21:00,
2013-01-10 05:36:00,36.0,34.0,30.10,SE,127,0.0,0.0,91,0.00,,,0.00,weatherlink.com 1.10,2013-01-10 13:36:00,
2013-01-10 05:51:00,35.4,33.0,30.10,SE,127,0.0,0.0,91,0.00,,,0.00,weatherlink.com 1.10,2013-01-10 13:51:00,
2013-01-10 06:06:00,34.5,33.0,30.10,SE,127,0.0,0.0,92,0.00,,,0.00,weatherlink.com 1.10,2013-01-10 14:06:00,
2013-01-10 06:21:00,34.8,33.0,30.09,SE,140,0.0,0.0,93,0.00,,,0.00,weatherlink.com 1.10,2013-01-10 14:21:00,
2013-01-10 06:36:00,34.9,33.0,30.10,East,98,1.0,3.0,93,0.00,,,0.00,weatherlink.com 1.10,2013-01-10 14:36:00,
2013-01-10 06:51:00,35.1,33.0,30.10,ENE,63,0.0,4.0,92,0.00,,,0.00,weatherlink.com 1.10,2013-01-10 14:51:00,
2013-01-10 07:06:00,35.2,33.0,30.11,ESE,104,1.0,4.0,93,0.00,,,0.00,weatherlink.com 1.10,2013-01-10 15:06:00,
2013-01-10 07:21:00,34.6,32.0,30.12,NW,311,0.0,1.0,91,0.00,,,0.00,weatherlink.com 1.10,2013-01-10 15:21:00,
2013-01-10 07:36:00,34.2,32.0,30.12,ENE,68,0.0,0.0,93,0.00,,,0.00,weatherlink.com 1.10,2013-01-10 15:36:00,
2013-01-10 08:06:00,34.6,33.0,30.12,SW,224,0.0,0.0,93,0.00,,,0.00,weatherlink.com 1.10,2013-01-10 16:06:00,
2013-01-10 08:22:00,36.7,35.0,30.13,East,79,0.0,0.0,92,0.00,,,0.00,weatherlink.com 1.10,2013-01-10 16:22:00,
2013-01-10 08:36:00,38.2,35.0,30.13,ESE,104,0.0,0.0,88,0.00,,,0.00,weatherlink.com 1.10,2013-01-10 16:36:00,
2013-01-10 08:51:00,38.8,35.0,30.13,North,1,0.0,2.0,87,0.00,,,0.00,weatherlink.com 1.10,2013-01-10 16:51:00,
2013-01-10 09:06:00,39.7,36.0,30.13,SE,143,0.0,3.0,87,0.00,,,0.00,weatherlink.com 1.10,2013-01-10 17:06:00,
2013-01-10 09:22:00,40.7,36.0,30.13,SW,229,0.0,0.0,84,0.00,,,0.00,weatherlink.com 1.10,2013-01-10 17:22:00,
2013-01-10 09:37:00,41.7,37.0,30.13,SE,141,0.0,0.0,82,0.00,,,0.00,weatherlink.com 1.10,2013-01-10 17:37:00,
2013-01-10 09:52:00,42.6,38.0,30.14,West,263,0.0,3.0,82,0.00,,,0.00,weatherlink.com 1.10,2013-01-10 17:52:00,
2013-01-10 10:07:00,43.3,37.0,30.13,West,277,1.0,3.0,78,0.00,,,0.00,weatherlink.com 1.10,2013-01-10 18:07:00,
2013-01-10 10:23:00,44.2,37.0,30.14,North,5,8.0,8.0,76,0.00,,,0.00,weatherlink.com 1.10,2013-01-10 18:23:00,
2013-01-10 10:37:00,44.9,37.0,30.13,WNW,294,1.0,9.0,74,0.00,,,0.00,weatherlink.com 1.10,2013-01-10 18:37:00,
2013-01-10 10:52:00,46.3,38.0,30.13,NW,307,1.0,5.0,73,0.00,,,0.00,weatherlink.com 1.10,2013-01-10 18:52:00,
2013-01-10 11:07:00,46.6,36.0,30.13,NW,321,6.0,10.0,66,0.00,,,0.00,weatherlink.com 1.10,2013-01-10 19:07:00,
2013-01-10 11:22:00,47.0,35.0,30.12,West,260,3.0,13.0,63,0.00,,,0.00,weatherlink.com 1.10,2013-01-10 19:22:00,
2013-01-10 11:37:00,47.7,35.0,30.11,North,4,7.0,10.0,62,0.00,,,0.00,weatherlink.com 1.10,2013-01-10 19:37:00,
2013-01-10 11:52:00,48.3,35.0,30.11,NNW,328,4.0,8.0,60,0.00,,,0.00,weatherlink.com 1.10,2013-01-10 19:52:00,
2013-01-10 12:07:00,48.8,35.0,30.10,NNW,336,1.0,9.0,60,0.00,,,0.00,weatherlink.com 1.10,2013-01-10 20:07:00,
2013-01-10 12:22:00,49.4,35.0,30.09,NW,323,3.0,8.0,58,0.00,,,0.00,weatherlink.com 1.10,2013-01-10 20:22:00,
2013-01-10 12:39:00,49.8,35.0,30.09,East,91,1.0,11.0,57,0.00,,,0.00,weatherlink.com 1.10,2013-01-10 20:39:00,
2013-01-10 12:52:00,50.1,33.0,30.09,West,274,6.0,14.0,53,0.00,,,0.00,weatherlink.com 1.10,2013-01-10 20:52:00,
2013-01-10 13:08:00,50.7,33.0,30.08,NNE,25,1.0,12.0,52,0.00,,,0.00,weatherlink.com 1.10,2013-01-10 21:08:00,
2013-01-10 13:22:00,51.4,34.0,30.09,North,357,6.0,10.0,51,0.00,,,0.00,weatherlink.com 1.10,2013-01-10 21:22:00,
2013-01-10 13:37:00,51.3,34.0,30.08,NW,319,7.0,14.0,53,0.00,,,0.00,weatherlink.com 1.10,2013-01-10 21:37:00,
2013-01-10 13:52:00,51.3,34.0,30.08,North,355,4.0,16.0,53,0.00,,,0.00,weatherlink.com 1.10,2013-01-10 21:52:00,
2013-01-10 14:07:00,50.9,34.0,30.09,WSW,249,2.0,12.0,52,0.00,,,0.00,weatherlink.com 1.10,2013-01-10 22:07:00,
2013-01-10 14:22:00,51.3,34.0,30.08,North,357,7.0,15.0,51,0.00,,,0.00,weatherlink.com 1.10,2013-01-10 22:22:00,
2013-01-10 14:37:00,51.4,35.0,30.09,North,352,7.0,12.0,53,0.00,,,0.00,weatherlink.com 1.10,2013-01-10 22:37:00,
2013-01-10 14:52:00,51.6,32.0,30.09,NW,316,1.0,12.0,48,0.00,,,0.00,weatherlink.com 1.10,2013-01-10 22:52:00,
2013-01-10 15:07:00,51.4,33.0,30.09,NW,319,3.0,11.0,49,0.00,,,0.00,weatherlink.com 1.10,2013-01-10 23:07:00,
2013-01-10 15:22:00,51.2,33.0,30.09,East,82,2.0,16.0,50,0.00,,,0.00,weatherlink.com 1.10,2013-01-10 23:22:00,
2013-01-10 15:37:00,51.4,33.0,30.09,NE,51,1.0,12.0,50,0.00,,,0.00,weatherlink.com 1.10,2013-01-10 23:37:00,
2013-01-10 15:52:00,51.1,33.0,30.09,ESE,106,2.0,14.0,50,0.00,,,0.00,weatherlink.com 1.10,2013-01-10 23:52:00,
2013-01-10 16:07:00,51.2,33.0,30.09,East,96,4.0,11.0,51,0.00,,,0.00,weatherlink.com 1.10,2013-01-11 00:07:00,
2013-01-10 16:22:00,51.0,33.0,30.10,NW,321,3.0,9.0,51,0.00,,,0.00,weatherlink.com 1.10,2013-01-11 00:22:00,
2013-01-10 16:37:00,50.4,34.0,30.10,West,265,2.0,9.0,54,0.00,,,0.00,weatherlink.com 1.10,2013-01-11 00:37:00,
2013-01-10 16:52:00,49.3,34.0,30.11,NW,318,4.0,9.0,56,0.00,,,0.00,weatherlink.com 1.10,2013-01-11 00:52:00,
2013-01-10 17:07:00,47.8,34.0,30.12,West,278,4.0,10.0,59,0.00,,,0.00,weatherlink.com 1.10,2013-01-11 01:07:00,
2013-01-10 17:22:00,46.7,33.0,30.12,WSW,257,1.0,9.0,60,0.00,,,0.00,weatherlink.com 1.10,2013-01-11 01:22:00,
2013-01-10 17:38:00,45.8,33.0,30.13,NNE,13,2.0,6.0,62,0.00,,,0.00,weatherlink.com 1.10,2013-01-11 01:38:00,
2013-01-10 17:52:00,45.2,33.0,30.13,WNW,285,0.0,4.0,63,0.00,,,0.00,weatherlink.com 1.10,2013-01-11 01:52:00,
2013-01-10 18:07:00,44.7,33.0,30.14,WSW,241,2.0,7.0,65,0.00,,,0.00,weatherlink.com 1.10,2013-01-11 02:07:00,
2013-01-10 18:23:00,44.3,34.0,30.14,West,280,1.0,5.0,66,0.00,,,0.00,weatherlink.com 1.10,2013-01-11 02:23:00,
2013-01-10 18:38:00,43.7,33.0,30.14,NNW,347,0.0,5.0,67,0.00,,,0.00,weatherlink.com 1.10,2013-01-11 02:38:00,
2013-01-10 18:53:00,43.4,33.0,30.15,WNW,295,3.0,9.0,68,0.00,,,0.00,weatherlink.com 1.10,2013-01-11 02:53:00,
2013-01-10 19:08:00,43.1,34.0,30.15,NW,309,0.0,5.0,69,0.00,,,0.00,weatherlink.com 1.10,2013-01-11 03:08:00,
2013-01-10 19:23:00,42.8,34.0,30.15,WNW,286,1.0,7.0,70,0.00,,,0.00,weatherlink.com 1.10,2013-01-11 03:23:00,
2013-01-10 19:38:00,42.5,33.0,30.15,NW,321,1.0,10.0,70,0.00,,,0.00,weatherlink.com 1.10,2013-01-11 03:38:00,
2013-01-10 19:53:00,42.4,33.0,30.16,SSW,208,2.0,7.0,70,0.00,,,0.00,weatherlink.com 1.10,2013-01-11 03:53:00,
2013-01-10 20:08:00,42.3,33.0,30.16,NE,41,4.0,6.0,70,0.00,,,0.00,weatherlink.com 1.10,2013-01-11 04:08:00,
2013-01-10 20:23:00,42.0,33.0,30.17,WNW,297,0.0,3.0,70,0.00,,,0.00,weatherlink.com 1.10,2013-01-11 04:23:00,
2013-01-10 20:38:00,41.8,33.0,30.18,ENE,63,2.0,2.0,70,0.00,,,0.00,weatherlink.com 1.10,2013-01-11 04:38:00,
2013-01-10 20:53:00,40.8,32.0,30.18,South,169,0.0,3.0,71,0.00,,,0.00,weatherlink.com 1.10,2013-01-11 04:53:00,
2013-01-10 21:08:00,39.9,32.0,30.18,SW,226,0.0,3.0,74,0.00,,,0.00,weatherlink.com 1.10,2013-01-11 05:08:00,
2013-01-10 21:23:00,40.9,33.0,30.18,SSW,197,1.0,8.0,73,0.00,,,0.00,weatherlink.com 1.10,2013-01-11 05:23:00,
2013-01-10 21:38:00,41.5,33.0,30.19,West,260,2.0,7.0,71,0.00,,,0.00,weatherlink.com 1.10,2013-01-11 05:38:00,
2013-01-10 21:53:00,41.3,33.0,30.19,NNW,347,1.0,4.0,71,0.00,,,0.00,weatherlink.com 1.10,2013-01-11 05:53:00,
2013-01-10 22:08:00,40.8,33.0,30.19,WNW,297,2.0,5.0,73,0.00,,,0.00,weatherlink.com 1.10,2013-01-11 06:08:00,
2013-01-10 22:23:00,40.8,33.0,30.20,North,352,1.0,6.0,74,0.00,,,0.00,weatherlink.com 1.10,2013-01-11 06:23:00,
2013-01-10 22:38:00,40.8,33.0,30.20,WSW,248,1.0,7.0,74,0.00,,,0.00,weatherlink.com 1.10,2013-01-11 06:38:00,
2013-01-10 22:53:00,40.8,33.0,30.20,North,354,2.0,5.0,75,0.00,,,0.00,weatherlink.com 1.10,2013-01-11 06:53:00,
2013-01-10 23:08:00,40.5,33.0,30.20,WNW,297,1.0,3.0,75,0.00,,,0.00,weatherlink.com 1.10,2013-01-11 07:08:00,
2013-01-10 23:23:00,40.2,33.0,30.21,NNE,15,0.0,3.0,76,0.00,,,0.00,weatherlink.com 1.10,2013-01-11 07:23:00,
2013-01-10 23:38:00,40.0,33.0,30.21,NW,324,0.0,3.0,76,0.00,,,0.00,weatherlink.com 1.10,2013-01-11 07:38:00,
2013-01-10 23:53:00,39.4,33.0,30.21,NE,52,0.0,2.0,77,0.00,,,0.00,weatherlink.com 1.10,2013-01-11 07:53:00,